Time;durP1;ratioP1;P1;durP2;ratioP2;P2;SDS_P1;SDS_P2;PMS_P1;PMS_P2;Temp;Humidity;BMP_temperature;BMP_pressure;BME280_temperature;BME280_humidity;BME280_pressure;Samples;Min_cycle;Max_cycle;Signal;HPM_P1;HPM_P2
2023/04/27 00:02:18;;;;;;;9.00;8.27;;;;;;;6.06;68.14;101941.66;5091965;28;20383;-58
2023/04/27 00:04:44;;;;;;;11.52;10.40;;;;;;;5.94;68.34;101942.84;5093171;28;20028;-57
2023/04/27 00:07:09;;;;;;;11.50;10.02;;;;;;;5.78;68.86;101947.63;5091571;28;20032;-57
2023/04/27 00:09:35;;;;;;;8.15;7.45;;;;;;;5.96;68.65;101946.31;5093064;28;20020;-57
2023/04/27 00:12:00;;;;;;;10.02;8.18;;;;;;;5.91;68.39;101942.91;5091722;28;20031;-58
2023/04/27 00:14:27;;;;;;;12.10;10.27;;;;;;;5.64;68.52;101947.13;5091870;28;20099;-58
2023/04/27 00:16:52;;;;;;;12.27;10.88;;;;;;;5.54;69.87;101953.53;5092773;28;20052;-58
2023/04/27 00:19:18;;;;;;;9.88;7.22;;;;;;;5.82;69.26;101954.56;5093498;28;20145;-58
2023/04/27 00:21:43;;;;;;;8.35;7.05;;;;;;;5.79;69.50;101952.00;5091111;28;20024;-58
2023/04/27 00:24:09;;;;;;;12.88;11.55;;;;;;;5.44;70.45;101950.22;5091661;28;20071;-58
2023/04/27 00:26:34;;;;;;;11.65;7.90;;;;;;;5.66;69.88;101946.16;5092433;28;20020;-57
2023/04/27 00:28:59;;;;;;;11.13;10.13;;;;;;;5.46;70.58;101958.97;5092729;28;20026;-57
2023/04/27 00:31:25;;;;;;;7.70;6.72;;;;;;;5.63;69.59;101951.53;5091419;28;20544;-58
2023/04/27 00:33:50;;;;;;;12.43;11.38;;;;;;;5.26;70.77;101958.59;5092840;28;20024;-58
2023/04/27 00:36:18;;;;;;;9.65;7.80;;;;;;;5.54;70.18;101949.13;5092103;28;20027;-58
2023/04/27 00:38:43;;;;;;;12.73;11.45;;;;;;;5.40;70.14;101953.84;5092130;28;20093;-57
2023/04/27 00:41:09;;;;;;;11.73;7.85;;;;;;;5.55;70.33;101955.25;5092593;28;20493;-57
2023/04/27 00:43:45;;;;;;;12.73;11.13;;;;;;;5.23;71.52;101949.84;5090753;28;20098;-57
2023/04/27 00:46:16;;;;;;;12.63;6.95;;;;;;;5.51;70.61;101950.97;5092008;28;20025;-57
2023/04/27 00:48:42;;;;;;;9.23;6.90;;;;;;;5.46;69.80;101951.06;5092988;28;20030;-57
2023/04/27 00:51:07;;;;;;;13.40;11.40;;;;;;;5.13;71.14;101945.69;5092000;28;20379;-57
2023/04/27 00:53:35;;;;;;;8.98;8.07;;;;;;;5.42;70.55;101949.41;5091907;28;20024;-57
2023/04/27 00:56:03;;;;;;;9.70;8.75;;;;;;;5.27;71.14;101955.06;5101665;28;20475;-58
2023/04/27 00:58:28;;;;;;;9.75;7.45;;;;;;;5.34;71.25;101946.09;5092106;28;20019;-58
2023/04/27 01:00:54;;;;;;;12.02;11.02;;;;;;;5.18;70.44;101942.97;5105940;28;20026;-57
2023/04/27 01:03:21;;;;;;;11.80;7.18;;;;;;;5.24;71.11;101930.47;5108360;28;20122;-57
2023/04/27 01:05:46;;;;;;;12.60;7.15;;;;;;;5.29;71.30;101947.97;5092613;28;20424;-57
2023/04/27 01:08:11;;;;;;;12.95;11.40;;;;;;;5.01;71.33;101943.34;5092381;28;20115;-58
2023/04/27 01:10:37;;;;;;;12.23;7.68;;;;;;;5.23;71.46;101948.97;5109064;28;20015;-58
2023/04/27 01:13:02;;;;;;;8.73;7.22;;;;;;;5.24;71.70;101948.09;5092743;28;20028;-57
2023/04/27 01:15:28;;;;;;;11.15;8.40;;;;;;;5.23;71.01;101944.59;5092228;28;20012;-57
2023/04/27 01:18:00;;;;;;;9.00;7.55;;;;;;;5.23;71.10;101951.59;5090343;28;20048;-57
2023/04/27 01:20:29;;;;;;;10.82;9.63;;;;;;;4.98;72.26;101949.53;5091861;28;20136;-58
2023/04/27 01:22:55;;;;;;;13.75;9.45;;;;;;;4.97;72.12;101950.44;5091360;28;20024;-58
2023/04/27 01:25:20;;;;;;;10.43;8.02;;;;;;;5.09;71.52;101951.03;5090692;28;20515;-58
2023/04/27 01:27:46;;;;;;;9.68;8.13;;;;;;;5.11;71.58;101955.38;5091796;28;20024;-58
2023/04/27 01:30:11;;;;;;;16.75;10.65;;;;;;;5.00;72.39;101957.44;5091893;28;20603;-58
2023/04/27 01:32:37;;;;;;;9.45;7.18;;;;;;;5.10;71.72;101951.03;5090547;28;20024;-58
2023/04/27 01:35:03;;;;;;;10.48;7.43;;;;;;;5.03;71.31;101938.00;5092038;28;20012;-58
2023/04/27 01:37:30;;;;;;;8.82;7.50;;;;;;;5.00;72.19;101947.75;5092494;28;20505;-58
2023/04/27 01:39:55;;;;;;;10.05;9.07;;;;;;;4.88;72.22;101949.75;5096072;28;20024;-57
2023/04/27 01:42:20;;;;;;;9.60;7.63;;;;;;;4.94;72.26;101942.59;5094582;28;20116;-58
2023/04/27 01:44:50;;;;;;;13.10;11.80;;;;;;;4.65;72.87;101945.88;5094662;28;20024;-57
2023/04/27 01:47:16;;;;;;;11.37;7.30;;;;;;;4.70;72.74;101919.41;5095677;28;20031;-58
2023/04/27 01:49:41;;;;;;;9.90;7.70;;;;;;;4.82;72.74;101941.97;5096071;28;20084;-58
2023/04/27 01:52:07;;;;;;;13.65;7.45;;;;;;;4.85;73.00;101947.19;5095119;28;20110;-58
2023/04/27 01:54:32;;;;;;;9.90;8.15;;;;;;;4.78;72.55;101938.56;5095641;28;20032;-57
2023/04/27 01:56:57;;;;;;;11.73;9.63;;;;;;;4.62;73.81;101934.50;5095930;28;20028;-58
2023/04/27 01:59:23;;;;;;;10.88;9.13;;;;;;;4.65;73.17;101937.97;5095479;28;20059;-57
2023/04/27 02:01:48;;;;;;;13.90;8.27;;;;;;;4.65;72.79;101937.97;5095547;28;20031;-58
2023/04/27 02:04:14;;;;;;;9.20;8.30;;;;;;;4.64;72.83;101930.06;5095933;28;20020;-58
2023/04/27 02:06:40;;;;;;;12.15;10.55;;;;;;;4.55;73.50;101945.16;5094950;28;20020;-58
2023/04/27 02:09:05;;;;;;;10.60;9.32;;;;;;;4.60;73.21;101934.53;5095567;28;20104;-58
2023/04/27 02:11:33;;;;;;;13.23;9.00;;;;;;;4.65;73.26;101932.69;5095190;28;20055;-57
2023/04/27 02:13:58;;;;;;;12.32;9.45;;;;;;;4.42;73.60;101924.38;5108245;28;20051;-57
2023/04/27 02:16:24;;;;;;;12.52;9.43;;;;;;;4.49;73.22;101923.34;5112443;28;20050;-58
2023/04/27 02:18:52;;;;;;;11.27;7.38;;;;;;;4.50;73.07;101918.06;5109821;28;20529;-57
2023/04/27 02:21:18;;;;;;;10.27;7.97;;;;;;;4.54;73.15;101924.13;5109396;28;20065;-57
2023/04/27 02:23:43;;;;;;;10.55;7.88;;;;;;;4.57;73.57;101931.09;5113465;28;20031;-57
2023/04/27 02:26:18;;;;;;;12.07;9.80;;;;;;;4.52;73.41;101928.56;5113472;28;20027;-57
2023/04/27 02:28:45;;;;;;;11.73;8.07;;;;;;;4.52;73.10;101912.75;5112118;28;20036;-58
2023/04/27 02:31:10;;;;;;;8.85;7.88;;;;;;;4.52;73.32;101915.38;5112067;28;20031;-58
2023/04/27 02:33:38;;;;;;;12.65;8.18;;;;;;;4.48;73.68;101913.72;5113114;27;20088;-57
2023/04/27 02:36:04;;;;;;;9.18;7.97;;;;;;;4.39;73.66;101906.88;5111033;28;20111;-58
2023/04/27 02:38:30;;;;;;;13.60;9.82;;;;;;;4.27;74.57;101923.78;5115332;28;20474;-57
2023/04/27 02:40:55;;;;;;;13.88;8.27;;;;;;;4.30;74.24;101920.22;5113019;28;20024;-58
2023/04/27 02:43:21;;;;;;;8.50;7.60;;;;;;;4.31;73.69;101908.78;5107563;28;20024;-58
2023/04/27 02:45:46;;;;;;;10.10;9.10;;;;;;;4.26;74.42;101915.91;5108941;28;20475;-57
2023/04/27 02:48:12;;;;;;;12.45;8.57;;;;;;;4.31;73.91;101917.56;5107019;28;20028;-58
2023/04/27 02:50:41;;;;;;;14.65;8.60;;;;;;;4.27;74.19;101917.66;5109928;28;20032;-57
2023/04/27 02:53:07;;;;;;;9.45;8.13;;;;;;;4.31;73.86;101921.97;5114624;28;20103;-57
2023/04/27 02:55:33;;;;;;;9.68;8.05;;;;;;;4.32;73.99;101923.69;5108874;28;20587;-57
2023/04/27 02:57:58;;;;;;;11.85;8.73;;;;;;;4.29;74.01;101926.38;5113537;28;20019;-57
2023/04/27 03:00:24;;;;;;;9.82;7.78;;;;;;;4.25;73.46;101917.66;5111561;28;20406;-57
2023/04/27 03:02:49;;;;;;;13.77;8.63;;;;;;;4.17;74.53;101911.69;5112830;27;20027;-57
2023/04/27 03:05:15;;;;;;;10.98;7.70;;;;;;;4.13;75.04;101919.69;5096544;28;20038;-58
2023/04/27 03:07:40;;;;;;;9.35;8.35;;;;;;;4.12;74.01;101910.94;5112296;28;20038;-57
2023/04/27 03:10:06;;;;;;;12.00;9.70;;;;;;;4.08;74.75;101909.22;5111143;28;20022;-57
2023/04/27 03:12:32;;;;;;;13.57;8.63;;;;;;;4.08;75.29;101911.88;5101082;28;20832;-57
2023/04/27 03:14:58;;;;;;;10.73;9.63;;;;;;;3.99;75.13;101912.03;5103401;28;20401;-57
2023/04/27 03:17:24;;;;;;;9.27;8.27;;;;;;;4.04;75.47;101913.69;5111806;28;20064;-57
2023/04/27 03:19:51;;;;;;;11.48;8.43;;;;;;;4.00;75.56;101913.75;5112358;28;20051;-57
2023/04/27 03:22:17;;;;;;;9.63;8.23;;;;;;;3.98;75.39;101919.06;5097943;28;20536;-57
2023/04/27 03:24:42;;;;;;;12.88;8.48;;;;;;;4.02;75.37;101923.38;5093994;28;20081;-58
2023/04/27 03:27:08;;;;;;;9.10;8.30;;;;;;;4.00;75.19;101925.19;5092692;28;20030;-57
2023/04/27 03:29:33;;;;;;;11.10;8.43;;;;;;;3.93;74.69;101922.69;5093939;28;20028;-57
2023/04/27 03:31:59;;;;;;;9.18;8.27;;;;;;;3.97;75.18;101921.72;5092452;28;20027;-57
2023/04/27 03:34:24;;;;;;;11.45;8.25;;;;;;;3.93;75.21;101930.56;5093990;28;20024;-57
2023/04/27 03:36:49;;;;;;;10.05;8.10;;;;;;;3.94;74.83;101930.56;5093281;28;20027;-58
2023/04/27 03:39:15;;;;;;;10.48;8.63;;;;;;;3.90;75.12;101938.53;5093781;28;20034;-58
2023/04/27 03:41:41;;;;;;;11.18;8.48;;;;;;;3.86;75.14;101938.59;5093428;28;20484;-58
2023/04/27 03:44:06;;;;;;;14.38;8.63;;;;;;;3.81;75.32;101927.25;5093733;28;20410;-57
2023/04/27 03:46:32;;;;;;;11.77;8.10;;;;;;;3.85;75.83;101934.22;5093158;28;20028;-57
2023/04/27 03:48:57;;;;;;;13.15;8.77;;;;;;;3.76;75.36;101930.88;5093727;28;20099;-57
2023/04/27 03:51:23;;;;;;;13.57;8.32;;;;;;;3.82;75.54;101942.19;5093101;28;20390;-58
2023/04/27 03:53:48;;;;;;;14.00;8.48;;;;;;;3.80;75.61;101937.84;5091504;28;20043;-57
2023/04/27 03:56:14;;;;;;;12.20;8.55;;;;;;;3.73;75.36;101937.03;5092760;28;20088;-57
2023/04/27 03:58:39;;;;;;;12.63;9.35;;;;;;;3.73;76.24;101936.19;5093468;28;20032;-57
2023/04/27 04:01:05;;;;;;;12.25;8.32;;;;;;;3.71;76.12;101936.22;5092370;28;20034;-57
2023/04/27 04:03:30;;;;;;;11.77;9.13;;;;;;;3.70;76.68;101944.13;5093354;28;20410;-58
2023/04/27 04:05:58;;;;;;;10.82;8.65;;;;;;;3.68;76.52;101943.28;5092731;28;20024;-57
2023/04/27 04:08:23;;;;;;;12.90;9.68;;;;;;;3.70;75.94;101939.72;5093335;28;20036;-58
2023/04/27 04:10:49;;;;;;;10.82;8.90;;;;;;;3.62;76.16;101928.50;5092737;28;20031;-58
2023/04/27 04:13:14;;;;;;;12.98;8.75;;;;;;;3.63;75.72;101924.97;5091864;28;20024;-58
2023/04/27 04:15:39;;;;;;;12.90;9.25;;;;;;;3.67;76.25;101937.16;5092823;28;20020;-57
2023/04/27 04:18:05;;;;;;;14.77;9.70;;;;;;;3.66;76.14;101939.81;5091577;28;20050;-57
2023/04/27 04:20:33;;;;;;;16.20;9.43;;;;;;;3.57;76.63;101932.94;5092981;28;20176;-57
2023/04/27 04:22:59;;;;;;;11.55;8.85;;;;;;;3.55;76.88;101946.13;5088721;28;20107;-57
2023/04/27 04:25:25;;;;;;;11.93;10.18;;;;;;;3.47;77.21;101948.03;5091441;28;20093;-57
2023/04/27 04:27:50;;;;;;;13.43;9.38;;;;;;;3.52;76.89;101945.31;5092521;28;20024;-57
2023/04/27 04:30:16;;;;;;;15.68;9.73;;;;;;;3.46;77.08;101948.03;5091820;28;20550;-57
2023/04/27 04:32:43;;;;;;;14.13;9.75;;;;;;;3.51;76.65;101949.69;5107528;28;20024;-57
2023/04/27 04:35:10;;;;;;;12.68;9.63;;;;;;;3.52;76.75;101950.56;5092586;28;20048;-57
2023/04/27 04:37:38;;;;;;;14.52;9.73;;;;;;;3.51;77.54;101957.59;5090823;28;20035;-57
2023/04/27 04:40:09;;;;;;;16.20;8.65;;;;;;;3.51;77.64;101962.00;5092502;28;20085;-58
2023/04/27 04:42:37;;;;;;;12.35;8.82;;;;;;;3.51;77.76;101967.25;5092422;28;20479;-57
2023/04/27 04:45:03;;;;;;;11.95;9.98;;;;;;;3.52;76.71;101968.97;5092211;28;20486;-57
2023/04/27 04:47:33;;;;;;;11.73;9.82;;;;;;;3.51;77.08;101968.09;5092131;28;20360;-57
2023/04/27 04:49:58;;;;;;;12.00;9.10;;;;;;;3.50;77.26;101969.00;5092449;28;20016;-58
2023/04/27 04:52:24;;;;;;;11.68;8.98;;;;;;;3.51;77.44;101962.84;5073460;28;20111;-58
2023/04/27 04:54:52;;;;;;;14.55;10.43;;;;;;;3.53;77.04;101971.59;5092453;28;20046;-57
2023/04/27 04:57:18;;;;;;;14.43;9.65;;;;;;;3.53;77.69;101960.19;5091984;28;20031;-58
2023/04/27 04:59:43;;;;;;;14.38;10.25;;;;;;;3.54;77.46;101969.81;5094076;28;20015;-58
2023/04/27 05:02:11;;;;;;;10.43;8.73;;;;;;;3.56;77.27;101976.81;5104964;28;20069;-58
2023/04/27 05:04:36;;;;;;;11.02;9.93;;;;;;;3.54;77.72;101973.31;5094090;28;20107;-57
2023/04/27 05:07:03;;;;;;;17.90;10.40;;;;;;;3.61;77.85;101968.81;5090112;28;20387;-57
2023/04/27 05:09:29;;;;;;;18.50;9.98;;;;;;;3.62;78.13;101973.22;5092193;28;20085;-58
2023/04/27 05:11:54;;;;;;;12.95;9.85;;;;;;;3.56;78.76;101966.28;5091149;28;20028;-58
2023/04/27 05:14:20;;;;;;;10.57;9.27;;;;;;;3.64;78.42;101976.66;5090585;28;20060;-58
2023/04/27 05:16:47;;;;;;;10.40;9.18;;;;;;;3.72;78.86;101977.41;5091801;28;20087;-58
2023/04/27 05:19:17;;;;;;;15.38;10.23;;;;;;;3.78;78.49;101969.41;5091937;28;20018;-57
2023/04/27 05:21:43;;;;;;;17.15;10.38;;;;;;;3.82;78.25;101970.22;5091219;28;20087;-58
2023/04/27 05:24:11;;;;;;;14.13;10.10;;;;;;;3.99;78.47;101978.69;5092231;28;20437;-57
2023/04/27 05:26:37;;;;;;;16.73;10.15;;;;;;;4.05;78.12;101980.34;5091831;28;20293;-57
2023/04/27 05:29:02;;;;;;;11.80;9.05;;;;;;;4.16;77.49;101978.41;5090431;28;20440;-57
2023/04/27 05:31:28;;;;;;;13.57;9.55;;;;;;;4.23;78.08;101981.78;5091769;28;20051;-57
2023/04/27 05:33:53;;;;;;;12.82;10.18;;;;;;;4.34;77.68;101979.84;5091968;28;20032;-57
2023/04/27 05:36:19;;;;;;;15.00;10.52;;;;;;;4.41;76.76;101977.94;5089849;28;20024;-58
2023/04/27 05:38:44;;;;;;;15.57;9.68;;;;;;;4.44;76.39;101978.78;5091819;28;20028;-57
2023/04/27 05:41:09;;;;;;;17.02;10.73;;;;;;;4.46;77.19;101989.25;5092105;28;20036;-58
2023/04/27 05:43:37;;;;;;;19.83;9.30;;;;;;;4.52;76.75;101981.25;5090266;28;20020;-58
2023/04/27 05:46:03;;;;;;;14.98;9.98;;;;;;;4.60;76.63;101986.38;5091619;28;20102;-58
2023/04/27 05:48:28;;;;;;;14.73;9.30;;;;;;;4.68;76.09;101987.94;5091899;28;20032;-58
2023/04/27 05:51:01;;;;;;;13.65;9.32;;;;;;;4.76;75.57;101988.69;5091244;28;20032;-58
2023/04/27 05:53:27;;;;;;;12.75;9.10;;;;;;;4.86;75.15;101993.75;5091517;28;20555;-58
2023/04/27 05:55:53;;;;;;;14.85;9.45;;;;;;;4.91;74.21;101989.22;5091694;28;20028;-58
2023/04/27 05:58:18;;;;;;;17.63;9.13;;;;;;;4.98;73.50;101991.72;5090246;28;20039;-58
2023/04/27 06:00:46;;;;;;;9.50;8.48;;;;;;;5.10;73.45;101987.94;5090334;28;20023;-58
2023/04/27 06:03:14;;;;;;;14.88;9.60;;;;;;;5.14;72.52;101986.97;5091606;28;20028;-57
2023/04/27 06:05:40;;;;;;;14.52;9.32;;;;;;;5.23;72.63;101989.41;5092754;28;20028;-57
2023/04/27 06:08:05;;;;;;;13.43;10.15;;;;;;;5.29;71.98;101998.06;5106043;28;20509;-57
2023/04/27 06:10:31;;;;;;;11.40;9.65;;;;;;;5.38;72.73;101995.22;5081474;28;20103;-57
2023/04/27 06:12:56;;;;;;;17.60;10.38;;;;;;;5.43;71.48;101994.22;5091190;28;20084;-57
2023/04/27 06:15:24;;;;;;;12.68;10.60;;;;;;;5.54;71.52;101996.63;5090970;28;20055;-57
2023/04/27 06:17:49;;;;;;;14.45;10.77;;;;;;;5.58;71.13;101987.72;5104372;28;20052;-58
2023/04/27 06:20:14;;;;;;;11.77;9.10;;;;;;;5.61;70.90;101970.94;5106707;28;20073;-57
2023/04/27 06:22:40;;;;;;;13.27;11.98;;;;;;;5.83;70.92;101981.84;5099816;28;20051;-57
2023/04/27 06:25:05;;;;;;;13.20;9.60;;;;;;;5.99;69.58;101977.94;5095161;28;20039;-57
2023/04/27 06:27:31;;;;;;;13.52;9.40;;;;;;;6.16;69.32;101982.78;5094730;28;20031;-57
2023/04/27 06:29:57;;;;;;;14.18;12.73;;;;;;;6.18;68.64;101983.63;5095273;28;20024;-57
2023/04/27 06:32:23;;;;;;;10.07;8.45;;;;;;;6.37;68.64;101970.78;5076590;28;20056;-58
2023/04/27 06:34:49;;;;;;;14.95;13.45;;;;;;;6.41;67.61;101982.97;5093864;28;20044;-58
2023/04/27 06:37:16;;;;;;;9.88;8.13;;;;;;;6.64;67.45;101990.28;5095109;28;20375;-57
2023/04/27 06:39:43;;;;;;;12.65;10.50;;;;;;;6.62;67.16;101986.81;5093543;28;20023;-57
2023/04/27 06:42:08;;;;;;;14.75;9.95;;;;;;;6.62;66.68;101988.56;5096503;28;20390;-57
2023/04/27 06:44:33;;;;;;;16.70;13.55;;;;;;;6.66;67.21;101992.88;5094741;28;20025;-57
2023/04/27 06:46:59;;;;;;;12.45;9.38;;;;;;;6.76;66.38;101995.19;5093095;28;20073;-57
2023/04/27 06:49:24;;;;;;;17.33;13.32;;;;;;;6.72;66.23;101990.06;5093338;28;20035;-57
2023/04/27 06:51:50;;;;;;;15.02;13.52;;;;;;;6.80;66.57;101980.13;5092706;28;20500;-57
2023/04/27 06:54:15;;;;;;;15.68;14.02;;;;;;;7.03;65.02;101990.03;5093221;28;20040;-57
2023/04/27 06:56:41;;;;;;;12.73;9.85;;;;;;;7.12;64.83;101980.94;5094413;28;20024;-57
2023/04/27 06:59:07;;;;;;;18.38;13.45;;;;;;;7.25;64.61;101987.59;5093075;28;20020;-57
2023/04/27 07:01:33;;;;;;;17.90;13.48;;;;;;;7.36;64.74;101990.78;5093994;28;20039;-58
2023/04/27 07:03:58;;;;;;;12.25;10.98;;;;;;;7.46;64.43;101980.75;5094496;28;20107;-57
2023/04/27 07:06:24;;;;;;;18.13;14.50;;;;;;;7.54;63.81;101989.34;5092508;28;20023;-57
2023/04/27 07:08:50;;;;;;;16.10;14.32;;;;;;;7.64;64.18;101974.00;5094123;28;20024;-58
2023/04/27 07:11:15;;;;;;;16.98;14.52;;;;;;;7.58;63.54;101953.91;5094051;28;20039;-57
2023/04/27 07:13:41;;;;;;;19.90;15.30;;;;;;;7.74;63.47;101965.72;5094348;28;20031;-58
2023/04/27 07:16:07;;;;;;;15.20;11.00;;;;;;;7.91;63.47;101985.47;5092688;28;20052;-58
2023/04/27 07:18:32;;;;;;;13.15;11.60;;;;;;;7.91;62.37;101974.88;5073846;28;20052;-58
2023/04/27 07:20:57;;;;;;;14.52;11.57;;;;;;;8.00;62.68;101971.03;5073231;28;20024;-58
2023/04/27 07:23:23;;;;;;;15.45;11.98;;;;;;;8.07;62.53;101975.22;5073663;28;20508;-57
2023/04/27 07:25:49;;;;;;;18.83;13.90;;;;;;;8.24;61.86;101983.47;5074112;28;20033;-58
2023/04/27 07:28:17;;;;;;;15.05;12.45;;;;;;;8.35;61.79;101983.97;5073242;28;20025;-57
2023/04/27 07:30:42;;;;;;;15.25;12.35;;;;;;;8.50;61.64;101982.56;5081929;28;20031;-57
2023/04/27 07:33:08;;;;;;;20.95;12.05;;;;;;;8.51;60.20;101981.63;5102769;28;20034;-58
2023/04/27 07:35:34;;;;;;;16.17;14.40;;;;;;;8.55;60.34;101977.94;5099394;28;20073;-57
2023/04/27 07:38:03;;;;;;;15.07;12.00;;;;;;;8.72;59.22;101987.94;5110442;28;20038;-57
2023/04/27 07:40:31;;;;;;;13.88;11.82;;;;;;;8.80;59.42;101969.97;5109182;28;20027;-57
2023/04/27 07:42:57;;;;;;;16.75;13.63;;;;;;;8.90;58.29;101981.09;5112349;28;20035;-57
2023/04/27 07:45:30;;;;;;;17.80;12.45;;;;;;;8.96;57.96;101985.28;5111473;28;20118;-58
2023/04/27 07:47:58;;;;;;;15.57;13.63;;;;;;;9.00;57.73;101974.53;5095700;28;20498;-58
2023/04/27 07:50:25;;;;;;;16.90;12.65;;;;;;;9.20;57.40;101975.53;5092784;28;20028;-58
2023/04/27 07:52:51;;;;;;;17.27;13.65;;;;;;;9.22;57.31;101976.34;5095433;28;20036;-58
2023/04/27 07:55:16;;;;;;;16.10;14.10;;;;;;;9.37;56.55;101966.91;5095914;28;20059;-58
2023/04/27 07:57:42;;;;;;;19.15;13.60;;;;;;;9.36;56.25;101978.44;5093388;28;20135;-59
2023/04/27 08:00:10;;;;;;;16.77;12.45;;;;;;;9.38;56.54;101976.56;5096486;28;20032;-58
2023/04/27 08:02:35;;;;;;;14.95;13.45;;;;;;;9.39;55.39;101967.72;5088478;28;20036;-58
2023/04/27 08:05:01;;;;;;;15.32;12.95;;;;;;;9.60;56.02;101972.13;5093302;28;20489;-58
2023/04/27 08:07:27;;;;;;;15.70;12.73;;;;;;;9.67;55.74;101968.28;5090692;28;20077;-58
2023/04/27 08:09:52;;;;;;;14.98;12.48;;;;;;;9.83;56.47;101967.69;5091783;28;20463;-58
2023/04/27 08:12:18;;;;;;;17.83;13.05;;;;;;;10.11;55.47;101973.53;5091612;28;20099;-58
2023/04/27 08:14:43;;;;;;;13.75;12.05;;;;;;;10.23;54.53;101982.75;5091629;28;20032;-58
2023/04/27 08:17:10;;;;;;;15.27;12.43;;;;;;;10.43;53.81;101979.28;5091741;28;20161;-58
2023/04/27 08:19:36;;;;;;;13.50;11.43;;;;;;;10.34;51.86;101969.91;5092949;28;20024;-58
2023/04/27 08:22:04;;;;;;;13.18;11.02;;;;;;;10.54;53.45;101982.31;5092185;28;20036;-58
2023/04/27 08:24:29;;;;;;;13.25;11.55;;;;;;;10.68;51.45;101971.06;5092877;28;20534;-58
2023/04/27 08:26:55;;;;;;;15.63;12.77;;;;;;;10.62;51.02;101971.34;5091267;28;20107;-58
2023/04/27 08:29:21;;;;;;;12.50;10.35;;;;;;;10.65;51.08;101964.09;5105185;28;20778;-58
2023/04/27 08:31:46;;;;;;;12.23;11.02;;;;;;;10.73;51.07;101955.75;5109064;28;20027;-58
2023/04/27 08:34:12;;;;;;;13.18;10.93;;;;;;;10.77;50.00;101941.38;5102412;28;20024;-58
2023/04/27 08:36:37;;;;;;;13.80;11.45;;;;;;;10.94;51.04;101945.88;5090662;28;20081;-58
2023/04/27 08:39:06;;;;;;;14.75;11.80;;;;;;;10.98;49.99;101936.00;5095029;28;20036;-58
2023/04/27 08:41:31;;;;;;;11.63;10.35;;;;;;;11.22;48.47;101947.25;5091678;28;20453;-58
2023/04/27 08:43:57;;;;;;;11.70;10.00;;;;;;;10.90;47.87;101953.16;5091009;28;20034;-58
2023/04/27 08:46:25;;;;;;;11.80;10.60;;;;;;;10.79;48.14;101947.47;5090530;28;20119;-58
2023/04/27 08:48:53;;;;;;;11.32;10.18;;;;;;;10.96;48.56;101943.16;5092479;28;20028;-58
2023/04/27 08:51:23;;;;;;;10.95;9.75;;;;;;;10.89;48.43;101942.59;5099160;28;20031;-58
2023/04/27 08:53:53;;;;;;;12.75;10.32;;;;;;;11.07;48.09;101951.53;5112762;28;20046;-58
2023/04/27 08:56:22;;;;;;;12.27;10.00;;;;;;;11.04;47.62;101944.53;5111292;28;20479;-58
2023/04/27 08:58:48;;;;;;;12.32;9.90;;;;;;;11.04;46.65;101946.34;5112721;28;20116;-58
2023/04/27 09:01:16;;;;;;;10.75;9.57;;;;;;;11.23;49.04;101946.31;5109422;28;20122;-58
2023/04/27 09:03:42;;;;;;;10.38;9.38;;;;;;;11.54;47.14;101951.88;5110353;28;20054;-58
2023/04/27 09:06:07;;;;;;;12.82;10.20;;;;;;;11.48;46.49;101946.84;5097582;28;20390;-58
2023/04/27 09:08:41;;;;;;;10.02;9.05;;;;;;;11.65;47.46;101951.34;5108863;28;20449;-58
2023/04/27 09:11:07;;;;;;;12.82;10.00;;;;;;;11.85;45.78;101945.03;5112490;28;20478;-58
2023/04/27 09:13:37;;;;;;;14.68;9.32;;;;;;;11.89;45.91;101949.28;5111156;28;20070;-58
2023/04/27 09:16:05;;;;;;;9.35;8.35;;;;;;;12.09;44.01;101947.38;5112362;28;20019;-58
2023/04/27 09:18:34;;;;;;;12.43;9.73;;;;;;;12.19;43.90;101951.31;5112358;28;20051;-58
2023/04/27 09:21:00;;;;;;;10.50;9.15;;;;;;;12.20;43.33;101953.88;5095548;28;20031;-58
2023/04/27 09:23:40;;;;;;;10.35;9.25;;;;;;;12.34;44.19;101941.66;5090555;28;20024;-58
2023/04/27 09:26:09;;;;;;;10.27;9.23;;;;;;;12.16;43.44;101946.13;5098852;28;20051;-58
2023/04/27 09:28:39;;;;;;;9.35;8.40;;;;;;;12.37;42.80;101946.81;5082654;28;20020;-58
2023/04/27 09:31:08;;;;;;;10.80;8.38;;;;;;;12.63;41.73;101940.94;5101082;28;20035;-58
2023/04/27 09:33:35;;;;;;;9.55;7.57;;;;;;;12.78;39.46;101941.06;5112154;28;20019;-58
2023/04/27 09:36:09;;;;;;;11.43;8.20;;;;;;;12.89;42.12;101931.50;5097047;28;20093;-58
2023/04/27 09:38:35;;;;;;;8.82;7.93;;;;;;;13.14;40.21;101932.81;5106214;28;20026;-58
2023/04/27 09:41:01;;;;;;;10.10;8.10;;;;;;;13.19;39.87;101942.28;5105233;28;20023;-58
2023/04/27 09:43:30;;;;;;;8.02;7.22;;;;;;;13.29;38.80;101928.44;5111989;28;20119;-58
2023/04/27 09:45:57;;;;;;;9.00;7.60;;;;;;;13.08;38.40;101939.34;5106772;28;20388;-58
2023/04/27 09:48:23;;;;;;;9.30;8.00;;;;;;;13.28;39.41;101930.25;5107398;28;20034;-58
2023/04/27 09:50:52;;;;;;;9.00;8.10;;;;;;;13.51;37.65;101931.59;5110787;28;20027;-58
2023/04/27 09:53:22;;;;;;;8.70;7.90;;;;;;;13.34;37.65;101921.88;5111816;28;20024;-58
2023/04/27 09:56:06;;;;;;;11.98;8.02;;;;;;;13.58;37.28;101929.41;5112010;28;20071;-58
2023/04/27 09:58:52;;;;;;;15.00;8.05;;;;;;;13.64;36.96;101921.03;5114093;28;20096;-58
2023/04/27 10:01:40;;;;;;;8.60;7.70;;;;;;;13.96;39.42;101913.78;5099027;28;20038;-58
2023/04/27 10:04:24;;;;;;;10.15;7.78;;;;;;;14.01;37.14;101913.50;5115881;28;20026;-58
2023/04/27 10:07:02;;;;;;;8.60;7.72;;;;;;;14.03;37.30;101915.16;5115386;28;20381;-58
2023/04/27 10:09:55;;;;;;;10.45;9.05;;;;;;;13.77;36.04;101918.53;5115910;28;20367;-58
2023/04/27 10:12:26;;;;;;;10.25;8.57;;;;;;;13.46;36.92;101920.31;5115551;28;20032;-58
2023/04/27 10:14:54;;;;;;;10.27;8.68;;;;;;;13.91;37.13;101915.00;5110944;28;20072;-58
2023/04/27 10:17:38;;;;;;;9.25;7.70;;;;;;;14.11;37.19;101913.81;5115380;28;20047;-58
2023/04/27 10:20:08;;;;;;;11.73;8.30;;;;;;;13.69;35.10;101924.31;5114572;28;20054;-58
2023/04/27 10:22:45;;;;;;;12.45;8.30;;;;;;;14.01;36.66;101921.53;5115230;28;20034;-59
2023/04/27 10:25:15;;;;;;;84.63;12.95;;;;;;;14.14;36.24;101925.19;5114534;28;20502;-59
2023/04/27 10:27:40;;;;;;;10.07;8.05;;;;;;;13.98;34.54;101930.59;5107127;28;20465;-59
2023/04/27 10:30:11;;;;;;;11.43;7.78;;;;;;;13.89;35.38;101924.97;5112898;28;20027;-59
2023/04/27 10:32:36;;;;;;;13.18;9.02;;;;;;;13.77;35.44;101924.72;5108428;28;20028;-59
2023/04/27 10:35:07;;;;;;;9.60;8.63;;;;;;;13.83;36.18;101919.00;5115296;28;20118;-59
2023/04/27 10:37:40;;;;;;;8.95;8.05;;;;;;;14.13;36.52;101918.13;5114852;28;20036;-59
2023/04/27 10:40:14;;;;;;;10.40;8.50;;;;;;;14.00;35.51;101917.13;5114086;28;20028;-59
2023/04/27 10:42:40;;;;;;;10.35;8.10;;;;;;;14.35;36.23;101914.97;5115190;28;20031;-59
2023/04/27 10:45:06;;;;;;;12.40;7.70;;;;;;;14.54;35.11;101896.00;5115129;28;20028;-59
2023/04/27 10:47:59;;;;;;;8.48;7.78;;;;;;;14.80;36.62;101907.72;5095579;28;20135;-59
2023/04/27 10:50:26;;;;;;;8.75;7.85;;;;;;;14.66;35.17;101900.56;5113251;28;20032;-59
2023/04/27 10:52:52;;;;;;;10.77;8.60;;;;;;;15.05;34.17;101892.75;5114454;28;20386;-59
2023/04/27 10:55:20;;;;;;;9.45;8.07;;;;;;;15.17;34.25;101897.28;5113762;28;20016;-59
2023/04/27 10:57:54;;;;;;;10.57;7.65;;;;;;;15.13;34.13;101893.97;5105726;28;20057;-59
2023/04/27 11:00:22;;;;;;;12.10;8.38;;;;;;;15.01;33.14;101894.78;5094084;28;20032;-59
2023/04/27 11:02:50;;;;;;;11.20;8.53;;;;;;;15.07;33.02;101882.78;5114623;28;20050;-59
2023/04/27 11:05:21;;;;;;;7.75;6.70;;;;;;;15.34;34.07;101888.16;5113474;28;20419;-59
2023/04/27 11:07:49;;;;;;;8.93;7.30;;;;;;;15.32;32.70;101880.19;5114267;28;20543;-59
2023/04/27 11:10:18;;;;;;;7.90;6.97;;;;;;;15.58;33.62;101877.59;5113510;28;20015;-59
2023/04/27 11:12:44;;;;;;;9.48;7.55;;;;;;;15.54;32.77;101876.94;5114613;28;20712;-59
2023/04/27 11:15:11;;;;;;;7.32;6.50;;;;;;;15.84;33.08;101867.81;5111181;28;20020;-59
2023/04/27 11:17:37;;;;;;;8.52;7.20;;;;;;;15.78;31.93;101877.13;5111625;28;20071;-59
2023/04/27 11:20:09;;;;;;;8.70;6.93;;;;;;;15.85;31.66;101873.09;5108982;28;20019;-59
2023/04/27 11:22:45;;;;;;;11.10;8.02;;;;;;;15.74;32.59;101864.91;5110384;28;20065;-59